Startpagina
METAR-TAF:

METAR-TAF

Vliegvelden :

Medellín, Colombia

breedte: 06-13N, lengte: 075-36W, hoogte: 1490 m

Actueel weer

Dit bericht is 10 uur en het 32 minuten geleden gemaakt, om 22:00 UTC
Wind 3 kt uit het westzuidwesten
Temperatuur 19°C
Vochtigheid 94%
Druk 1019 hPa
Zicht 10 km of meer
Verspreide wolken op 3000 ft
Gebroken wolken op 7000 ft
lichte motregen

METAR: SKMD 142200Z 25003KT 9999 -DZ SCT030 BKN070 19/18 A3010 RETS

Tijdstip: 03:32 (08:32 UTC)


TAF: ontbreekt

Waarnemingen en weersverwachtingen van meer dan 4000 vliegvelden (METAR en TAF).

De beschikbare stations zijn de gele en rode punten op de kaart.

Ga met uw muis naar het station om de naam te zien.

Klik dan om waarnemingen en weersverwachtingen te zien.

kaart wijzigen: klik op de groene knoppen met een zwart kruis om in te zoomen, op de groene knop met een streepje om uit te zoomen of op de groene pijlen voor aangrenzende kaarten.


METAR-TAF: